Time;durP1;ratioP1;P1;durP2;ratioP2;P2;SDS_P1;SDS_P2;PMS_P1;PMS_P2;Temp;Humidity;BMP_temperature;BMP_pressure;BME280_temperature;BME280_humidity;BME280_pressure;Samples;Min_cycle;Max_cycle;Signal;HPM_P1;HPM_P2
2022/05/25 00:00:08;;;;;;;5.28;0.80;;;14.20;69.00;;;;;;5030227;28;20033;-67
2022/05/25 00:02:34;;;;;;;3.40;0.90;;;14.20;69.20;;;;;;5027963;28;20112;-66
2022/05/25 00:05:00;;;;;;;3.50;0.70;;;14.10;69.30;;;;;;5023548;28;20101;-66
2022/05/25 00:07:25;;;;;;;5.47;0.90;;;14.10;69.50;;;;;;5019191;28;20080;-66
2022/05/25 00:09:52;;;;;;;2.85;0.80;;;14.00;69.50;;;;;;5028286;28;20036;-66
2022/05/25 00:12:20;;;;;;;4.30;0.68;;;14.00;69.50;;;;;;5013052;28;20515;-66
2022/05/25 00:14:47;;;;;;;3.90;0.70;;;14.00;69.60;;;;;;5016484;28;20057;-66
2022/05/25 00:17:12;;;;;;;2.67;0.73;;;14.00;69.60;;;;;;5031442;28;20043;-66
2022/05/25 00:22:22;;;;;;;4.75;0.90;;;14.00;69.20;;;;;;5017261;28;20060;-66
2022/05/25 00:24:48;;;;;;;2.92;1.00;;;14.00;69.40;;;;;;5014291;28;20022;-66
2022/05/25 00:27:14;;;;;;;4.32;0.88;;;14.00;69.60;;;;;;5032344;28;20029;-66
2022/05/25 00:29:39;;;;;;;4.20;0.85;;;14.00;69.80;;;;;;5029654;28;20022;-66
2022/05/25 00:32:06;;;;;;;5.55;0.80;;;14.00;69.60;;;;;;5020378;28;20030;-66
2022/05/25 00:34:33;;;;;;;5.03;0.90;;;14.00;69.60;;;;;;5019804;28;20022;-67
2022/05/25 00:36:59;;;;;;;5.45;0.90;;;14.00;69.60;;;;;;5043584;28;20154;-66
2022/05/25 00:39:25;;;;;;;3.67;0.80;;;13.90;69.80;;;;;;5027674;28;20036;-66
2022/05/25 00:41:51;;;;;;;1.45;0.60;;;14.00;70.10;;;;;;5015589;28;20038;-66
2022/05/25 00:44:17;;;;;;;1.88;0.63;;;13.90;70.70;;;;;;5016738;28;20092;-66
2022/05/25 00:46:43;;;;;;;2.88;0.75;;;14.00;71.00;;;;;;5026213;28;20078;-66
2022/05/25 00:49:21;;;;;;;2.35;0.88;;;13.90;71.00;;;;;;5027254;28;20101;-66
2022/05/25 00:51:53;;;;;;;1.88;0.60;;;13.90;71.00;;;;;;5013887;28;20119;-66
2022/05/25 00:54:26;;;;;;;4.53;0.70;;;13.90;70.90;;;;;;5012455;28;20497;-66
2022/05/25 00:56:56;;;;;;;2.55;0.70;;;13.90;71.10;;;;;;5042000;28;20029;-66
2022/05/25 00:59:28;;;;;;;3.42;0.77;;;13.90;71.30;;;;;;5028802;28;20075;-66
2022/05/25 01:01:55;;;;;;;4.35;0.65;;;13.90;71.50;;;;;;5032757;28;20031;-66
2022/05/25 01:04:21;;;;;;;4.90;0.80;;;13.80;71.60;;;;;;5037521;28;20447;-66
2022/05/25 01:07:18;;;;;;;5.35;0.73;;;13.80;71.70;;;;;;5013839;28;20117;-66
2022/05/25 01:10:17;;;;;;;5.88;0.60;;;13.80;71.40;;;;;;5025773;28;20366;-66
2022/05/25 01:12:46;;;;;;;3.30;0.60;;;13.80;70.80;;;;;;5011206;28;20033;-66
2022/05/25 01:15:35;;;;;;;3.00;0.60;;;13.70;70.60;;;;;;4990507;28;20483;-66
2022/05/25 01:18:33;;;;;;;4.65;0.70;;;13.70;71.00;;;;;;5006733;28;20061;-66
2022/05/25 01:21:06;;;;;;;6.03;0.68;;;13.60;71.30;;;;;;4987363;28;20042;-66
2022/05/25 01:24:13;;;;;;;3.78;0.80;;;13.60;71.50;;;;;;5007362;28;20057;-66
2022/05/25 01:26:51;;;;;;;3.97;0.98;;;13.60;71.60;;;;;;4985987;28;20069;-66
2022/05/25 01:29:17;;;;;;;3.60;0.75;;;13.60;71.50;;;;;;4986119;28;20146;-66
2022/05/25 01:32:19;;;;;;;8.00;0.70;;;13.60;71.60;;;;;;4988591;28;20544;-66
2022/05/25 01:34:53;;;;;;;5.72;0.70;;;13.60;71.70;;;;;;4989663;28;20038;-66
2022/05/25 01:37:42;;;;;;;3.90;0.70;;;13.50;71.70;;;;;;4984875;28;20073;-66
2022/05/25 01:40:28;;;;;;;4.88;0.63;;;13.50;71.80;;;;;;4988981;28;20034;-66
2022/05/25 01:43:06;;;;;;;2.95;0.60;;;13.50;72.00;;;;;;4991189;28;20043;-66
2022/05/25 01:45:37;;;;;;;3.25;0.70;;;13.50;71.70;;;;;;4985934;28;20038;-66
2022/05/25 01:48:05;;;;;;;;;;;13.40;71.70;;;;;;4988897;28;20472;-66
2022/05/25 01:50:40;;;;;;;5.18;0.80;;;13.40;71.80;;;;;;4982789;28;19976;-66
2022/05/25 01:53:07;;;;;;;6.80;0.80;;;13.40;71.90;;;;;;4986861;28;20105;-66
2022/05/25 01:55:38;;;;;;;5.82;0.68;;;13.40;71.60;;;;;;4986354;28;20092;-66
2022/05/25 01:58:14;;;;;;;4.88;0.90;;;13.40;71.00;;;;;;4985549;28;20588;-66
2022/05/25 02:00:43;;;;;;;3.17;0.70;;;13.30;70.70;;;;;;4993129;28;20041;-66
2022/05/25 02:05:58;;;;;;;6.25;0.70;;;13.20;70.50;;;;;;5022970;28;20028;-66
2022/05/25 02:08:39;;;;;;;4.82;0.80;;;13.20;70.50;;;;;;5030570;28;20040;-66
2022/05/25 02:11:10;;;;;;;;;;;13.10;70.90;;;;;;5023502;28;20105;-66
2022/05/25 02:14:01;;;;;;;5.07;0.90;;;13.10;71.00;;;;;;5027132;28;19909;-66
2022/05/25 02:16:53;;;;;;;2.97;0.90;;;13.00;71.50;;;;;;5022231;28;20037;-66
2022/05/25 02:19:31;;;;;;;4.30;0.90;;;13.00;71.80;;;;;;5028936;28;20022;-66
2022/05/25 02:22:09;;;;;;;4.43;1.00;;;13.00;71.70;;;;;;5038917;28;20049;-66
2022/05/25 02:25:04;;;;;;;3.38;1.17;;;12.90;71.50;;;;;;5014719;28;20038;-66
2022/05/25 02:27:42;;;;;;;6.50;1.00;;;12.90;71.70;;;;;;5008024;28;20533;-66
2022/05/25 02:30:16;;;;;;;6.60;2.33;;;12.90;71.80;;;;;;5005672;28;20104;-66
2022/05/25 02:33:01;;;;;;;5.90;1.95;;;12.80;71.80;;;;;;5009601;28;20400;-66
2022/05/25 02:35:28;;;;;;;4.43;1.73;;;12.80;71.80;;;;;;5010334;28;20046;-66
2022/05/25 02:37:59;;;;;;;6.97;1.58;;;12.80;71.80;;;;;;5008201;28;20057;-66
2022/05/25 02:40:27;;;;;;;4.70;1.50;;;12.80;71.80;;;;;;5007398;28;20030;-66
2022/05/25 02:42:54;;;;;;;8.13;1.48;;;12.80;71.60;;;;;;5016282;28;20037;-66
2022/05/25 02:45:20;;;;;;;4.68;1.35;;;12.80;71.30;;;;;;5008083;28;20113;-66
2022/05/25 02:47:46;;;;;;;4.85;1.30;;;12.80;71.20;;;;;;5008931;28;20025;-66
2022/05/25 02:50:12;;;;;;;5.28;1.02;;;12.70;71.10;;;;;;5007793;28;20046;-66
2022/05/25 02:52:38;;;;;;;4.60;1.00;;;12.70;70.80;;;;;;5008165;28;20033;-66
2022/05/25 02:55:05;;;;;;;4.45;1.05;;;12.60;70.90;;;;;;5007718;28;20477;-66
2022/05/25 02:57:31;;;;;;;1.88;0.70;;;12.60;71.00;;;;;;5007585;28;20129;-66
2022/05/25 02:59:56;;;;;;;2.35;0.82;;;12.60;71.20;;;;;;5009021;28;20160;-66
2022/05/25 03:02:22;;;;;;;5.97;0.80;;;12.50;71.40;;;;;;5007693;28;20038;-65
2022/05/25 03:04:48;;;;;;;2.50;0.93;;;12.60;71.70;;;;;;5019938;28;20038;-66
2022/05/25 03:07:14;;;;;;;2.05;0.65;;;12.60;71.90;;;;;;5018770;28;20528;-66
2022/05/25 03:09:40;;;;;;;2.97;0.70;;;12.60;72.00;;;;;;5028858;28;20061;-66
2022/05/25 03:12:07;;;;;;;3.17;0.63;;;12.60;72.20;;;;;;5026576;28;20041;-66
2022/05/25 03:14:34;;;;;;;1.98;0.70;;;12.60;72.40;;;;;;5018443;28;20557;-66
2022/05/25 03:17:08;;;;;;;1.45;0.55;;;12.60;72.10;;;;;;5024736;28;20115;-66
2022/05/25 03:19:34;;;;;;;1.60;0.57;;;12.60;71.90;;;;;;5028160;28;20021;-66
2022/05/25 03:22:00;;;;;;;2.90;0.80;;;12.60;71.40;;;;;;5040267;28;20408;-66
2022/05/25 03:24:26;;;;;;;2.97;0.90;;;12.60;71.20;;;;;;5012925;28;20042;-66
2022/05/25 03:26:52;;;;;;;1.20;0.80;;;12.50;71.40;;;;;;5038882;28;20048;-66
2022/05/25 03:29:19;;;;;;;3.10;1.15;;;12.50;71.60;;;;;;5030868;28;20030;-66
2022/05/25 03:31:44;;;;;;;2.05;0.70;;;12.50;71.40;;;;;;5032865;28;20499;-66
2022/05/25 03:34:10;;;;;;;4.03;0.70;;;12.40;72.40;;;;;;5041633;28;20030;-66
2022/05/25 03:36:36;;;;;;;5.03;0.80;;;12.40;71.60;;;;;;5028954;28;20044;-66
2022/05/25 03:39:02;;;;;;;4.68;0.70;;;12.40;71.80;;;;;;5029942;28;20561;-65
2022/05/25 03:41:28;;;;;;;4.13;0.80;;;12.40;72.00;;;;;;5037296;28;20033;-66
2022/05/25 03:43:54;;;;;;;3.28;0.80;;;12.30;72.30;;;;;;5022699;28;20025;-66
2022/05/25 03:46:19;;;;;;;1.88;0.70;;;12.30;72.60;;;;;;5022654;28;20500;-66
2022/05/25 03:48:45;;;;;;;1.38;0.65;;;12.30;72.60;;;;;;5028916;28;20022;-66
2022/05/25 03:51:11;;;;;;;2.67;0.70;;;12.30;72.20;;;;;;5013332;28;20084;-66
2022/05/25 03:53:36;;;;;;;3.65;0.70;;;12.30;71.90;;;;;;5018167;28;20057;-66
2022/05/25 03:56:04;;;;;;;2.10;0.88;;;12.30;71.80;;;;;;5017215;28;20053;-66
2022/05/25 03:58:29;;;;;;;3.70;0.73;;;12.30;71.90;;;;;;5020166;28;20055;-66
2022/05/25 04:00:55;;;;;;;3.85;0.70;;;12.20;71.80;;;;;;5026599;28;20408;-66
2022/05/25 04:03:21;;;;;;;2.90;0.60;;;12.10;71.50;;;;;;5031700;28;20093;-66
2022/05/25 04:05:47;;;;;;;3.55;0.65;;;12.10;71.50;;;;;;5027931;28;20048;-66
2022/05/25 04:08:13;;;;;;;1.60;0.65;;;12.00;71.40;;;;;;5025326;28;20029;-67
2022/05/25 04:10:39;;;;;;;2.30;0.93;;;12.00;71.30;;;;;;5030542;28;20507;-66
2022/05/25 04:13:05;;;;;;;3.72;0.90;;;12.00;71.40;;;;;;5030493;28;20508;-66
2022/05/25 04:15:33;;;;;;;3.42;0.80;;;11.90;71.70;;;;;;5011653;28;20037;-66
2022/05/25 04:17:59;;;;;;;5.45;1.10;;;11.90;72.00;;;;;;5029807;28;20032;-66
2022/05/25 04:20:26;;;;;;;5.80;0.80;;;11.90;72.30;;;;;;5025824;28;20033;-66
2022/05/25 04:22:52;;;;;;;2.60;0.80;;;11.90;72.50;;;;;;5023620;28;20146;-66
2022/05/25 04:25:20;;;;;;;3.70;0.82;;;11.90;72.70;;;;;;5016438;28;20552;-66
2022/05/25 04:27:48;;;;;;;3.58;0.88;;;12.00;72.80;;;;;;5013754;28;20032;-66
2022/05/25 04:30:18;;;;;;;2.75;1.00;;;12.00;72.90;;;;;;5028137;28;20033;-66
2022/05/25 04:32:44;;;;;;;3.28;0.80;;;12.00;72.80;;;;;;5035946;28;20044;-66
2022/05/25 04:35:11;;;;;;;2.53;0.85;;;12.00;72.40;;;;;;5028809;28;20041;-68
2022/05/25 04:37:49;;;;;;;2.17;0.70;;;12.00;72.10;;;;;;5024123;28;20034;-68
2022/05/25 04:40:40;;;;;;;3.45;0.82;;;12.00;71.90;;;;;;5028952;28;20029;-68
2022/05/25 04:43:12;;;;;;;1.95;0.73;;;12.00;71.60;;;;;;5011451;28;20592;-68
2022/05/25 04:45:40;;;;;;;6.00;0.90;;;11.90;71.60;;;;;;5034781;28;20037;-68
2022/05/25 04:48:05;;;;;;;6.10;0.90;;;11.90;71.80;;;;;;5029831;28;20044;-68
2022/05/25 04:50:34;;;;;;;3.65;0.88;;;11.90;72.10;;;;;;5025240;28;20794;-68
2022/05/25 04:53:01;;;;;;;3.35;0.88;;;11.90;72.20;;;;;;5020920;28;20464;-67
2022/05/25 04:58:24;;;;;;;3.55;0.90;;;12.00;72.50;;;;;;5019614;28;20400;-69
2022/05/25 05:00:50;;;;;;;4.60;1.10;;;12.00;72.80;;;;;;5026128;28;20021;-69
2022/05/25 05:03:17;;;;;;;5.35;1.02;;;12.10;73.10;;;;;;5021465;28;20026;-69
2022/05/25 05:05:43;;;;;;;4.90;1.05;;;12.10;73.40;;;;;;5021786;28;20026;-68
2022/05/25 05:08:10;;;;;;;5.38;1.10;;;12.20;73.70;;;;;;5024839;28;20515;-69
2022/05/25 05:10:36;;;;;;;2.60;1.10;;;12.20;74.00;;;;;;5023201;28;20037;-69
2022/05/25 05:13:04;;;;;;;5.53;1.17;;;12.20;75.30;;;;;;5019067;28;20034;-68
2022/05/25 05:15:41;;;;;;;5.07;1.35;;;12.30;74.40;;;;;;5024509;28;20037;-68
2022/05/25 05:18:07;;;;;;;5.50;1.00;;;12.40;74.50;;;;;;5013014;28;20040;-68
2022/05/25 05:20:33;;;;;;;3.42;1.00;;;12.40;74.50;;;;;;5022022;28;20111;-68
2022/05/25 05:22:59;;;;;;;5.22;0.90;;;12.50;74.70;;;;;;5014484;28;20069;-68
2022/05/25 05:25:24;;;;;;;3.80;1.00;;;12.50;74.80;;;;;;5015276;28;20087;-68
2022/05/25 05:27:50;;;;;;;5.70;1.02;;;12.60;75.00;;;;;;5025338;28;20043;-68
2022/05/25 05:30:21;;;;;;;3.33;0.90;;;12.60;76.00;;;;;;5026977;28;20037;-69
2022/05/25 05:32:47;;;;;;;7.13;1.00;;;12.60;75.00;;;;;;5017589;28;20040;-68
2022/05/25 05:35:12;;;;;;;3.67;0.90;;;12.70;75.00;;;;;;5020138;28;20030;-69
2022/05/25 05:37:46;;;;;;;3.53;1.10;;;12.70;75.20;;;;;;5021098;28;20095;-68
2022/05/25 05:40:14;;;;;;;9.43;1.35;;;12.70;75.70;;;;;;5023617;28;20030;-66
2022/05/25 05:42:43;;;;;;;6.95;1.33;;;12.70;75.00;;;;;;5019597;28;20049;-67
2022/05/25 05:45:22;;;;;;;5.70;1.08;;;12.80;75.10;;;;;;5027593;28;20033;-67
2022/05/25 05:48:06;;;;;;;4.63;1.27;;;12.80;75.10;;;;;;5020434;28;20031;-68
2022/05/25 05:50:34;;;;;;;2.65;1.10;;;12.90;75.30;;;;;;5028478;28;20036;-68
2022/05/25 05:53:00;;;;;;;7.68;1.33;;;12.90;75.40;;;;;;5029684;28;20029;-68
2022/05/25 05:55:26;;;;;;;7.80;1.50;;;13.00;75.20;;;;;;5028391;28;20116;-68
2022/05/25 05:57:53;;;;;;;4.72;1.20;;;13.10;75.10;;;;;;5030677;28;20659;-68
2022/05/25 06:00:19;;;;;;;6.50;1.30;;;13.30;74.90;;;;;;5030556;28;20052;-68
2022/05/25 06:02:45;;;;;;;4.97;1.50;;;13.40;75.00;;;;;;5019039;28;20545;-68
2022/05/25 06:05:11;;;;;;;5.22;1.67;;;13.60;74.90;;;;;;5026343;28;20041;-68
2022/05/25 06:07:38;;;;;;;5.43;1.90;;;13.80;74.80;;;;;;5026365;28;20045;-68
2022/05/25 06:10:05;;;;;;;9.07;2.38;;;14.00;74.40;;;;;;5028907;28;20018;-69
2022/05/25 06:12:32;;;;;;;5.65;1.58;;;14.20;74.30;;;;;;5030544;28;20136;-68
2022/05/25 06:14:58;;;;;;;6.60;1.90;;;14.40;74.10;;;;;;5027313;28;20032;-68
2022/05/25 06:20:09;;;;;;;6.75;2.08;;;14.80;73.60;;;;;;5021768;28;20037;-68
2022/05/25 06:22:36;;;;;;;5.35;1.98;;;15.10;73.30;;;;;;5018219;28;20038;-68
2022/05/25 06:25:03;;;;;;;7.18;2.03;;;15.30;73.00;;;;;;5017205;28;20101;-68
2022/05/25 06:27:29;;;;;;;9.77;2.30;;;15.60;72.60;;;;;;5030360;28;20041;-69
2022/05/25 06:29:55;;;;;;;7.88;2.00;;;15.80;72.00;;;;;;5031231;28;20512;-68
2022/05/25 06:32:23;;;;;;;7.28;2.30;;;16.10;71.40;;;;;;5020165;28;20045;-67
2022/05/25 06:34:49;;;;;;;6.07;2.20;;;16.40;70.70;;;;;;5026226;28;20032;-68
2022/05/25 06:37:20;;;;;;;5.60;1.90;;;16.70;69.70;;;;;;5018856;28;20041;-68
2022/05/25 06:39:47;;;;;;;8.45;2.20;;;17.10;68.80;;;;;;5028610;28;20098;-68
2022/05/25 06:42:13;;;;;;;7.68;2.10;;;17.70;66.70;;;;;;5014665;28;20033;-68
2022/05/25 06:44:38;;;;;;;6.85;1.90;;;18.60;62.70;;;;;;5029168;28;20030;-68
2022/05/25 06:47:05;;;;;;;8.80;1.80;;;19.50;59.00;;;;;;5020453;28;20034;-68
2022/05/25 06:49:31;;;;;;;6.43;1.85;;;20.60;55.00;;;;;;5017842;28;20025;-68
2022/05/25 06:51:57;;;;;;;8.35;1.80;;;21.60;50.60;;;;;;5021668;28;20033;-68
2022/05/25 06:54:22;;;;;;;6.70;1.50;;;22.50;47.70;;;;;;5019522;28;20103;-68
2022/05/25 06:56:49;;;;;;;7.35;1.70;;;23.10;45.60;;;;;;5017868;28;20096;-69
2022/05/25 06:59:16;;;;;;;8.75;1.83;;;23.60;44.80;;;;;;5024498;28;20033;-68
2022/05/25 07:01:42;;;;;;;6.65;1.80;;;24.00;43.40;;;;;;5024770;28;20429;-68
2022/05/25 07:04:08;;;;;;;6.57;1.52;;;24.40;41.90;;;;;;5024165;28;20037;-68
2022/05/25 07:06:36;;;;;;;5.15;1.40;;;24.80;41.00;;;;;;5028875;28;20063;-68
2022/05/25 07:09:03;;;;;;;10.45;1.60;;;25.20;40.00;;;;;;5030499;28;20021;-68
2022/05/25 07:11:29;;;;;;;7.90;1.50;;;25.10;40.00;;;;;;5032024;28;20481;-69
2022/05/25 07:13:54;;;;;;;7.72;1.60;;;24.90;40.50;;;;;;5029004;28;20021;-69
2022/05/25 07:16:22;;;;;;;6.65;1.48;;;23.90;42.90;;;;;;5028109;28;20451;-68
2022/05/25 07:18:49;;;;;;;8.32;1.60;;;23.00;45.70;;;;;;5015615;28;20030;-68
2022/05/25 07:21:20;;;;;;;6.43;1.38;;;22.00;48.80;;;;;;5029026;28;20021;-68
2022/05/25 07:23:48;;;;;;;7.05;1.50;;;21.10;51.80;;;;;;5016818;28;20583;-68
2022/05/25 07:26:15;;;;;;;7.18;1.52;;;20.60;53.90;;;;;;5017783;28;20030;-69
2022/05/25 07:28:41;;;;;;;7.75;1.48;;;20.60;54.00;;;;;;5022031;28;20028;-68
2022/05/25 07:31:10;;;;;;;6.45;1.27;;;20.50;54.40;;;;;;5028504;28;20029;-67
2022/05/25 07:33:38;;;;;;;10.02;1.20;;;20.20;55.30;;;;;;5019564;28;20024;-69
2022/05/25 07:36:06;;;;;;;6.57;1.20;;;20.20;55.80;;;;;;5032146;28;20044;-68
2022/05/25 07:38:32;;;;;;;4.47;1.25;;;20.50;55.10;;;;;;5017855;28;20033;-68
2022/05/25 07:41:00;;;;;;;5.68;1.25;;;20.50;54.50;;;;;;5017702;28;20037;-68
2022/05/25 07:43:30;;;;;;;4.60;1.10;;;20.40;55.00;;;;;;5018029;28;20075;-68
2022/05/25 07:45:56;;;;;;;5.80;1.00;;;20.30;55.60;;;;;;5015857;28;20088;-68
2022/05/25 07:48:22;;;;;;;6.22;1.00;;;20.10;56.50;;;;;;5013096;28;20022;-68
2022/05/25 07:50:47;;;;;;;6.72;0.98;;;19.90;56.60;;;;;;5016969;28;20034;-68
2022/05/25 07:56:03;;;;;;;4.95;1.10;;;19.60;57.70;;;;;;5021909;28;20045;-68
2022/05/25 07:58:30;;;;;;;10.35;1.50;;;19.50;57.90;;;;;;5019755;28;20045;-68
2022/05/25 08:00:58;;;;;;;7.07;1.13;;;19.40;58.30;;;;;;5028834;28;20111;-68
2022/05/25 08:06:09;;;;;;;8.30;1.13;;;19.10;57.90;;;;;;5025929;28;20041;-68
2022/05/25 08:08:36;;;;;;;8.57;1.15;;;18.90;58.70;;;;;;5016810;28;20117;-68
2022/05/25 08:11:07;;;;;;;5.18;1.00;;;18.90;59.00;;;;;;5017436;28;20029;-67
2022/05/25 08:13:35;;;;;;;8.88;1.42;;;18.80;59.00;;;;;;5017086;28;20477;-68
2022/05/25 08:16:02;;;;;;;5.97;1.73;;;18.80;59.00;;;;;;5015841;28;20030;-68
2022/05/25 08:18:27;;;;;;;8.93;1.33;;;18.70;58.60;;;;;;5025475;28;20033;-68
2022/05/25 08:20:53;;;;;;;6.82;1.20;;;18.70;58.60;;;;;;5015722;28;20220;-68
2022/05/25 08:23:19;;;;;;;8.90;1.50;;;18.70;59.80;;;;;;5016761;28;20409;-68
2022/05/25 08:25:45;;;;;;;5.45;1.08;;;18.70;60.30;;;;;;5017157;28;20038;-67
2022/05/25 08:28:12;;;;;;;6.90;1.02;;;18.80;60.60;;;;;;5017003;28;20060;-68
2022/05/25 08:30:40;;;;;;;7.63;1.52;;;19.00;60.20;;;;;;5028439;28;20479;-68
2022/05/25 08:33:07;;;;;;;8.63;1.08;;;19.40;59.90;;;;;;5025341;28;20026;-68
2022/05/25 08:35:33;;;;;;;7.30;1.00;;;19.80;58.40;;;;;;5016703;28;20113;-68
2022/05/25 08:37:59;;;;;;;7.03;1.05;;;20.10;57.20;;;;;;5016569;28;20026;-68
2022/05/25 08:40:27;;;;;;;8.55;1.48;;;20.30;56.90;;;;;;5016665;28;20021;-68
2022/05/25 08:43:10;;;;;;;5.07;0.98;;;20.50;55.40;;;;;;5014574;28;20029;-68
2022/05/25 08:45:41;;;;;;;7.60;1.83;;;20.50;55.50;;;;;;5012717;28;20076;-68
2022/05/25 08:48:08;;;;;;;6.82;1.20;;;20.70;56.30;;;;;;5025401;28;20076;-68
2022/05/25 08:50:34;;;;;;;6.45;1.20;;;20.80;54.40;;;;;;5016679;28;20489;-68
2022/05/25 08:53:03;;;;;;;4.60;1.10;;;20.90;52.50;;;;;;5016436;28;20041;-68
2022/05/25 08:55:50;;;;;;;7.03;1.10;;;21.00;52.60;;;;;;5016395;28;20045;-68
2022/05/25 08:58:18;;;;;;;17.67;1.40;;;21.10;52.00;;;;;;5017511;28;20111;-68
2022/05/25 09:00:46;;;;;;;4.18;0.80;;;21.10;52.10;;;;;;5027929;28;20079;-68
2022/05/25 09:03:37;;;;;;;6.32;1.02;;;20.90;53.00;;;;;;5019822;28;20573;-68
2022/05/25 09:06:28;;;;;;;6.35;1.00;;;20.70;53.20;;;;;;5013479;28;20095;-68
2022/05/25 09:09:03;;;;;;;7.60;1.25;;;20.50;53.60;;;;;;5013782;28;20029;-69
2022/05/25 09:11:45;;;;;;;7.10;0.90;;;20.40;53.10;;;;;;5015967;28;20430;-68
2022/05/25 09:14:40;;;;;;;4.45;0.90;;;20.20;53.40;;;;;;5023160;28;20044;-68
2022/05/25 09:17:32;;;;;;;6.95;1.20;;;20.10;54.50;;;;;;5028134;28;20073;-68
2022/05/25 09:19:59;;;;;;;9.15;1.88;;;20.10;55.00;;;;;;5021705;28;20389;-67
2022/05/25 09:22:27;;;;;;;7.13;1.15;;;20.10;54.30;;;;;;5024160;28;20133;-68
2022/05/25 09:24:56;;;;;;;6.07;1.23;;;20.20;53.90;;;;;;5024192;28;20030;-68
2022/05/25 09:27:32;;;;;;;6.80;1.00;;;20.20;54.50;;;;;;5024750;28;20579;-67
2022/05/25 09:30:01;;;;;;;5.47;0.90;;;20.10;54.00;;;;;;5032260;28;20025;-67
2022/05/25 09:32:44;;;;;;;6.20;0.82;;;20.10;54.30;;;;;;5029523;28;20029;-68
2022/05/25 09:35:37;;;;;;;8.23;1.45;;;20.10;54.60;;;;;;5029300;28;20033;-67
2022/05/25 09:38:13;;;;;;;7.97;1.50;;;20.10;54.20;;;;;;5028991;28;20152;-67
2022/05/25 09:40:50;;;;;;;5.57;1.50;;;20.30;53.60;;;;;;5027640;28;20025;-68
2022/05/25 09:43:21;;;;;;;8.02;0.90;;;20.40;54.60;;;;;;5030351;28;20029;-68
2022/05/25 09:45:53;;;;;;;5.93;1.30;;;20.50;54.40;;;;;;5027950;28;20710;-67
2022/05/25 09:48:22;;;;;;;9.85;1.50;;;20.60;51.50;;;;;;5030653;28;20030;-68
2022/05/25 09:51:13;;;;;;;5.40;1.00;;;20.60;50.70;;;;;;5030363;28;20026;-68
2022/05/25 09:53:50;;;;;;;5.30;1.00;;;20.70;50.50;;;;;;5033402;28;20033;-68
2022/05/25 09:56:37;;;;;;;7.68;1.20;;;20.90;49.60;;;;;;5029228;28;20052;-68
2022/05/25 09:59:13;;;;;;;6.55;1.00;;;21.00;50.50;;;;;;5031571;28;20024;-68
2022/05/25 10:01:48;;;;;;;9.25;1.30;;;21.30;50.70;;;;;;5034525;28;20033;-68
2022/05/25 10:04:34;;;;;;;7.10;1.13;;;21.50;49.80;;;;;;5029925;28;20029;-68
2022/05/25 10:07:19;;;;;;;6.00;1.10;;;21.60;48.50;;;;;;5021723;28;20553;-67
2022/05/25 10:09:49;;;;;;;8.60;1.00;;;21.70;48.90;;;;;;5027509;28;20021;-68
2022/05/25 10:12:42;;;;;;;6.10;0.90;;;21.80;48.70;;;;;;5027946;28;20424;-68
2022/05/25 10:15:13;;;;;;;9.50;1.08;;;22.00;46.70;;;;;;5040708;28;20032;-68
2022/05/25 10:17:46;;;;;;;6.63;1.08;;;22.20;46.80;;;;;;5026677;28;20036;-68
2022/05/25 10:20:25;;;;;;;6.75;1.00;;;22.60;46.70;;;;;;5021484;28;20030;-68
2022/05/25 10:23:01;;;;;;;8.15;1.30;;;23.00;46.40;;;;;;5023482;28;20126;-68
2022/05/25 10:25:36;;;;;;;6.78;1.20;;;23.30;45.50;;;;;;5028403;28;20033;-68
2022/05/25 10:28:08;;;;;;;8.05;1.10;;;24.10;42.20;;;;;;5025281;28;20041;-68
2022/05/25 10:37:02;;;;;;;5.57;1.00;;;24.30;41.50;;;;;;5038762;28;20048;-68
2022/05/25 10:39:27;;;;;;;5.72;1.10;;;23.80;40.80;;;;;;5029940;28;20030;-68
2022/05/25 10:42:23;;;;;;;7.68;1.10;;;23.40;42.40;;;;;;5029031;28;20448;-68
2022/05/25 10:45:10;;;;;;;7.68;1.30;;;23.20;43.50;;;;;;5022304;28;20024;-68
2022/05/25 10:47:36;;;;;;;5.25;1.10;;;23.00;44.00;;;;;;5034200;28;20225;-68
2022/05/25 10:50:07;;;;;;;7.28;1.30;;;22.80;44.30;;;;;;5022839;28;20509;-68
2022/05/25 10:52:45;;;;;;;4.60;1.00;;;22.70;44.80;;;;;;5029863;28;20053;-68
2022/05/25 10:55:11;;;;;;;6.30;1.10;;;22.50;46.30;;;;;;5026230;28;20022;-68
2022/05/25 10:57:56;;;;;;;10.40;1.08;;;22.40;46.80;;;;;;5030025;28;20029;-68
2022/05/25 11:00:45;;;;;;;8.25;1.10;;;22.30;46.00;;;;;;5027985;28;20044;-67
2022/05/25 11:03:38;;;;;;;6.68;1.10;;;22.10;45.80;;;;;;5026662;28;20121;-67
2022/05/25 11:06:24;;;;;;;4.25;1.00;;;22.10;46.60;;;;;;5018750;28;20028;-68
2022/05/25 11:09:16;;;;;;;5.57;1.10;;;22.00;46.30;;;;;;5016046;28;20370;-68
2022/05/25 11:12:19;;;;;;;6.40;1.20;;;21.90;48.20;;;;;;5030559;28;20139;-67
2022/05/25 11:14:55;;;;;;;8.10;1.10;;;21.90;48.20;;;;;;5021921;28;20500;-68
2022/05/25 11:17:49;;;;;;;7.20;1.20;;;21.90;47.80;;;;;;5028330;28;20393;-68
2022/05/25 11:20:39;;;;;;;6.50;1.10;;;21.80;48.30;;;;;;5024652;28;20076;-68
2022/05/25 11:23:20;;;;;;;;;;;21.90;48.00;;;;;;5023937;28;20603;-67
2022/05/25 11:25:49;;;;;;;;;;;22.20;46.10;;;;;;5025259;28;19909;-67
2022/05/25 11:28:16;;;;;;;5.95;1.00;;;22.70;46.30;;;;;;5021213;28;19916;-67
2022/05/25 11:30:49;;;;;;;7.03;1.20;;;24.10;42.80;;;;;;5025638;28;20114;-67
2022/05/25 11:33:36;;;;;;;9.02;1.30;;;25.50;39.20;;;;;;5031568;28;20052;-68
2022/05/25 11:36:07;;;;;;;9.10;1.50;;;26.20;37.60;;;;;;5028706;28;20614;-67
2022/05/25 11:39:02;;;;;;;8.23;1.40;;;26.00;38.60;;;;;;5033540;28;20042;-67
2022/05/25 11:41:53;;;;;;;6.35;1.40;;;26.00;38.80;;;;;;5028749;28;20029;-67
2022/05/25 11:44:43;;;;;;;5.97;1.30;;;26.00;39.10;;;;;;5027949;28;20184;-67
2022/05/25 11:47:18;;;;;;;;;;;25.80;39.00;;;;;;5026975;28;20108;-67
2022/05/25 11:50:15;;;;;;;7.90;1.17;;;25.50;39.00;;;;;;5028973;28;20283;-67
2022/05/25 11:52:56;;;;;;;6.53;1.13;;;25.50;39.50;;;;;;5007555;28;20414;-67
2022/05/25 11:55:41;;;;;;;7.25;0.90;;;26.10;38.10;;;;;;5002700;28;20447;-67
2022/05/25 11:58:48;;;;;;;9.30;1.10;;;26.00;38.00;;;;;;5016772;28;20037;-67
2022/05/25 12:01:58;;;;;;;5.53;1.02;;;25.50;39.20;;;;;;5005595;28;20034;-67
2022/05/25 12:04:33;;;;;;;5.63;0.93;;;25.80;38.20;;;;;;5004373;28;20041;-66
2022/05/25 12:07:05;;;;;;;5.00;0.93;;;25.60;37.20;;;;;;5005755;28;20038;-66
2022/05/25 12:09:48;;;;;;;6.97;0.95;;;25.10;38.10;;;;;;5005820;28;20042;-66
2022/05/25 12:13:01;;;;;;;7.07;0.95;;;24.70;38.90;;;;;;5014962;28;20064;-67
2022/05/25 12:15:38;;;;;;;5.88;1.10;;;24.40;39.50;;;;;;4983900;28;20065;-68
2022/05/25 12:18:22;;;;;;;7.32;1.10;;;24.40;39.60;;;;;;5007871;28;20216;-68
2022/05/25 12:20:55;;;;;;;4.47;1.00;;;24.70;39.30;;;;;;4996453;28;20466;-68
2022/05/25 12:23:26;;;;;;;5.82;0.95;;;24.40;40.00;;;;;;4996881;28;20062;-67
2022/05/25 12:25:58;;;;;;;9.02;1.20;;;24.20;40.00;;;;;;4996460;28;20697;-67
2022/05/25 12:28:31;;;;;;;4.65;1.00;;;24.10;41.00;;;;;;5006009;28;20048;-67
2022/05/25 12:31:02;;;;;;;4.72;0.90;;;24.00;41.00;;;;;;5028287;28;20045;-67
2022/05/25 12:33:28;;;;;;;6.57;1.08;;;24.00;40.80;;;;;;5037404;28;20501;-68
2022/05/25 12:35:55;;;;;;;10.60;1.10;;;24.00;41.70;;;;;;5025974;28;20417;-68
2022/05/25 12:38:25;;;;;;;8.05;1.02;;;23.90;41.60;;;;;;5024987;28;20029;-67
2022/05/25 12:40:52;;;;;;;6.38;1.08;;;23.80;42.60;;;;;;5025891;28;20053;-68
2022/05/25 12:43:49;;;;;;;6.85;0.88;;;23.60;42.40;;;;;;5026477;28;20026;-68
2022/05/25 12:49:09;;;;;;;4.90;1.20;;;23.70;43.30;;;;;;5024219;28;20037;-67
2022/05/25 12:51:43;;;;;;;7.57;1.13;;;23.90;42.70;;;;;;5016370;28;20576;-68
2022/05/25 12:54:27;;;;;;;5.80;0.95;;;23.90;42.60;;;;;;5023448;28;20014;-68
2022/05/25 12:56:59;;;;;;;7.28;1.23;;;23.90;42.40;;;;;;5024511;28;20041;-68
2022/05/25 12:59:38;;;;;;;8.13;1.00;;;23.90;42.40;;;;;;5028732;28;20033;-68
2022/05/25 13:02:19;;;;;;;4.35;0.80;;;23.90;43.30;;;;;;5021083;28;20030;-68
2022/05/25 13:04:59;;;;;;;4.35;0.90;;;23.90;44.00;;;;;;5028414;28;20060;-68
2022/05/25 13:07:40;;;;;;;8.13;1.40;;;23.70;43.80;;;;;;5027872;28;20037;-68
2022/05/25 13:10:22;;;;;;;5.80;1.15;;;23.40;43.90;;;;;;5026649;28;20053;-68
2022/05/25 13:12:51;;;;;;;6.22;1.00;;;23.40;44.10;;;;;;5016972;28;20060;-67
2022/05/25 13:15:20;;;;;;;6.57;1.20;;;23.30;43.30;;;;;;5027058;28;20124;-67
2022/05/25 13:17:46;;;;;;;8.00;1.60;;;23.10;43.80;;;;;;5020497;28;20068;-67
2022/05/25 13:20:52;;;;;;;5.72;1.10;;;22.90;45.20;;;;;;5021944;28;20491;-67
2022/05/25 13:23:52;;;;;;;3.78;0.82;;;22.70;46.10;;;;;;5026050;28;20052;-67
2022/05/25 13:26:24;;;;;;;8.25;1.17;;;22.50;46.40;;;;;;5019885;28;20026;-68
2022/05/25 13:28:49;;;;;;;4.47;1.00;;;22.30;46.50;;;;;;5026642;28;20055;-67
2022/05/25 13:31:35;;;;;;;6.85;1.13;;;22.30;46.40;;;;;;5029543;28;20455;-68
2022/05/25 13:34:13;;;;;;;5.65;1.00;;;22.20;47.00;;;;;;5034833;28;20027;-67
2022/05/25 13:36:56;;;;;;;6.22;0.88;;;22.10;47.10;;;;;;5020370;28;20416;-68
2022/05/25 13:39:26;;;;;;;6.07;0.90;;;22.10;47.00;;;;;;5029338;28;20028;-68
2022/05/25 13:42:08;;;;;;;6.13;0.80;;;22.00;47.20;;;;;;5014795;28;20038;-68